Time,TemperatureF,DewpointF,PressureIn,WindDirection,WindDirectionDegrees,WindSpeedMPH,WindSpeedGustMPH,Humidity,HourlyPrecipIn,Conditions,Clouds,dailyrainin,SoftwareType,DateUTC
2013-03-20 00:00:00,24.5,23.5,29.65,NNE,27,36.0,40.0,96,0.00,,,0.00,Wunderground v.1.15,2013-03-20 04:00:00,
2013-03-20 00:05:00,24.7,23.7,29.66,NNE,27,28.0,36.0,96,0.00,,,0.00,Wunderground v.1.15,2013-03-20 04:05:00,
2013-03-20 00:10:00,24.6,23.6,29.66,NE,49,24.0,31.0,96,0.00,,,0.00,Wunderground v.1.15,2013-03-20 04:10:00,
2013-03-20 00:15:00,24.7,23.7,29.67,NNE,32,31.0,31.0,96,0.00,,,0.00,Wunderground v.1.15,2013-03-20 04:15:00,
2013-03-20 00:21:00,24.9,23.9,29.66,NE,40,31.0,31.0,96,0.00,,,0.00,Wunderground v.1.15,2013-03-20 04:21:00,
2013-03-20 00:27:00,24.7,23.7,29.66,NE,41,30.0,35.0,96,0.00,,,0.00,Wunderground v.1.15,2013-03-20 04:27:00,
2013-03-20 00:32:00,24.7,23.7,29.66,North,11,33.0,34.0,96,0.00,,,0.00,Wunderground v.1.15,2013-03-20 04:32:00,
2013-03-20 00:37:00,24.5,23.5,29.66,NE,39,30.0,35.0,96,0.00,,,0.00,Wunderground v.1.15,2013-03-20 04:37:00,
2013-03-20 00:42:00,24.3,23.3,29.65,NNE,32,32.0,32.0,96,0.00,,,0.00,Wunderground v.1.15,2013-03-20 04:42:00,
2013-03-20 00:47:00,24.4,23.4,29.65,NNE,25,31.0,34.0,96,0.00,,,0.00,Wunderground v.1.15,2013-03-20 04:47:00,
2013-03-20 00:52:00,24.4,23.4,29.66,NE,37,32.0,32.0,96,0.00,,,0.00,Wunderground v.1.15,2013-03-20 04:52:00,
2013-03-20 00:57:00,24.3,23.3,29.66,ENE,57,31.0,35.0,96,0.00,,,0.00,Wunderground v.1.15,2013-03-20 04:57:00,
2013-03-20 01:02:00,24.4,23.4,29.66,NE,36,28.0,30.0,96,0.00,,,0.00,Wunderground v.1.15,2013-03-20 05:02:00,
2013-03-20 01:08:00,24.2,23.2,29.67,NNE,13,25.0,33.0,96,0.00,,,0.00,Wunderground v.1.15,2013-03-20 05:08:00,
2013-03-20 01:13:00,24.4,23.4,29.67,NNE,30,23.0,30.0,96,0.00,,,0.00,Wunderground v.1.15,2013-03-20 05:13:00,
2013-03-20 01:18:00,24.4,23.4,29.67,NNE,32,27.0,34.0,96,0.00,,,0.00,Wunderground v.1.15,2013-03-20 05:18:00,
2013-03-20 01:23:00,24.4,23.4,29.67,ENE,71,28.0,31.0,96,0.00,,,0.00,Wunderground v.1.15,2013-03-20 05:23:00,
2013-03-20 01:28:00,24.5,23.5,29.67,NNE,15,28.0,32.0,96,0.00,,,0.00,Wunderground v.1.15,2013-03-20 05:28:00,
2013-03-20 01:33:00,24.5,23.5,29.67,North,4,27.0,30.0,96,0.00,,,0.00,Wunderground v.1.15,2013-03-20 05:33:00,
2013-03-20 01:38:00,24.7,23.7,29.68,NE,49,22.0,30.0,96,0.00,,,0.00,Wunderground v.1.15,2013-03-20 05:38:00,
2013-03-20 01:43:00,24.4,23.4,29.67,ENE,64,25.0,29.0,96,0.00,,,0.00,Wunderground v.1.15,2013-03-20 05:43:00,
2013-03-20 01:49:00,24.4,23.4,29.67,NNE,27,26.0,29.0,96,0.00,,,0.00,Wunderground v.1.15,2013-03-20 05:49:00,
2013-03-20 01:54:00,24.3,23.3,29.67,NE,38,26.0,30.0,96,0.00,,,0.00,Wunderground v.1.15,2013-03-20 05:54:00,
2013-03-20 01:59:00,24.4,23.4,29.67,East,98,30.0,30.0,96,0.00,,,0.00,Wunderground v.1.15,2013-03-20 05:59:00,
2013-03-20 02:04:00,24.2,23.0,29.67,NE,34,22.0,30.0,95,0.00,,,0.00,Wunderground v.1.15,2013-03-20 06:04:00,
2013-03-20 02:09:00,24.2,23.2,29.67,NE,42,26.0,30.0,96,0.00,,,0.00,Wunderground v.1.15,2013-03-20 06:09:00,
2013-03-20 02:15:00,24.2,23.2,29.67,ENE,61,29.0,29.0,96,0.00,,,0.00,Wunderground v.1.15,2013-03-20 06:15:00,
2013-03-20 02:20:00,24.3,23.3,29.67,ENE,62,24.0,30.0,96,0.00,,,0.00,Wunderground v.1.15,2013-03-20 06:20:00,
2013-03-20 02:25:00,24.0,22.8,29.67,NNE,23,24.0,31.0,95,0.00,,,0.00,Wunderground v.1.15,2013-03-20 06:25:00,
2013-03-20 02:30:00,24.1,22.9,29.67,NNE,29,26.0,31.0,95,0.00,,,0.00,Wunderground v.1.15,2013-03-20 06:30:00,
2013-03-20 02:35:00,24.1,22.9,29.67,East,82,25.0,26.0,95,0.00,,,0.00,Wunderground v.1.15,2013-03-20 06:35:00,
2013-03-20 02:40:00,24.3,23.1,29.67,NNE,23,23.0,29.0,95,0.00,,,0.00,Wunderground v.1.15,2013-03-20 06:40:00,
2013-03-20 02:45:00,24.2,23.0,29.67,NE,36,25.0,29.0,95,0.00,,,0.00,Wunderground v.1.15,2013-03-20 06:45:00,
2013-03-20 02:50:00,24.2,23.0,29.67,NE,56,29.0,30.0,95,0.00,,,0.00,Wunderground v.1.15,2013-03-20 06:50:00,
2013-03-20 02:55:00,24.3,23.1,29.68,ESE,121,16.0,28.0,95,0.00,,,0.00,Wunderground v.1.15,2013-03-20 06:55:00,
2013-03-20 03:00:00,24.2,22.7,29.68,NE,44,22.0,28.0,94,0.00,,,0.00,Wunderground v.1.15,2013-03-20 07:00:00,
2013-03-20 03:05:00,24.2,22.7,29.67,NNE,23,24.0,28.0,94,0.00,,,0.00,Wunderground v.1.15,2013-03-20 07:05:00,
2013-03-20 03:10:00,24.1,22.6,29.67,ENE,62,26.0,26.0,94,0.00,,,0.00,Wunderground v.1.15,2013-03-20 07:10:00,
2013-03-20 03:15:00,24.3,22.8,29.67,NNE,28,24.0,28.0,94,0.00,,,0.00,Wunderground v.1.15,2013-03-20 07:15:00,
2013-03-20 03:20:00,24.3,22.6,29.67,ENE,68,23.0,24.0,93,0.00,,,0.00,Wunderground v.1.15,2013-03-20 07:20:00,
2013-03-20 03:25:00,24.4,22.9,29.67,NNE,22,22.0,26.0,94,0.00,,,0.00,Wunderground v.1.15,2013-03-20 07:25:00,
2013-03-20 03:30:00,24.3,22.6,29.67,NNE,25,19.0,21.0,93,0.00,,,0.00,Wunderground v.1.15,2013-03-20 07:30:00,
2013-03-20 03:35:00,24.3,22.3,29.67,ENE,65,16.0,26.0,92,0.00,,,0.00,Wunderground v.1.15,2013-03-20 07:35:00,
2013-03-20 03:40:00,24.4,22.7,29.67,ENE,65,25.0,28.0,93,0.00,,,0.00,Wunderground v.1.15,2013-03-20 07:40:00,
2013-03-20 03:45:00,24.4,22.7,29.68,NNE,26,16.0,28.0,93,0.00,,,0.00,Wunderground v.1.15,2013-03-20 07:45:00,
2013-03-20 03:50:00,24.4,22.7,29.68,ENE,57,19.0,23.0,93,0.00,,,0.00,Wunderground v.1.15,2013-03-20 07:50:00,
2013-03-20 03:55:00,24.4,22.7,29.68,ENE,72,19.0,25.0,93,0.00,,,0.00,Wunderground v.1.15,2013-03-20 07:55:00,
2013-03-20 04:01:00,24.5,22.5,29.68,NE,50,21.0,24.0,92,0.00,,,0.00,Wunderground v.1.15,2013-03-20 08:01:00,
2013-03-20 04:06:00,24.6,22.6,29.68,NNE,32,17.0,24.0,92,0.00,,,0.00,Wunderground v.1.15,2013-03-20 08:06:00,
2013-03-20 04:11:00,24.6,22.6,29.67,North,5,19.0,23.0,92,0.00,,,0.00,Wunderground v.1.15,2013-03-20 08:11:00,
2013-03-20 04:16:00,24.7,22.7,29.67,SE,127,16.0,24.0,92,0.00,,,0.00,Wunderground v.1.15,2013-03-20 08:16:00,
2013-03-20 04:21:00,24.6,22.6,29.68,North,356,14.0,19.0,92,0.00,,,0.00,Wunderground v.1.15,2013-03-20 08:21:00,
2013-03-20 04:26:00,24.6,22.6,29.69,NNE,25,15.0,21.0,92,0.00,,,0.00,Wunderground v.1.15,2013-03-20 08:26:00,
2013-03-20 04:31:00,24.6,22.3,29.69,North,356,18.0,20.0,91,0.00,,,0.00,Wunderground v.1.15,2013-03-20 08:31:00,
2013-03-20 04:37:00,24.6,22.3,29.69,NNE,29,15.0,22.0,91,0.00,,,0.00,Wunderground v.1.15,2013-03-20 08:37:00,
2013-03-20 04:42:00,24.7,22.4,29.69,NNW,348,13.0,17.0,91,0.00,,,0.00,Wunderground v.1.15,2013-03-20 08:42:00,
2013-03-20 04:47:00,24.7,22.4,29.69,North,359,14.0,18.0,91,0.00,,,0.00,Wunderground v.1.15,2013-03-20 08:47:00,
2013-03-20 04:52:00,23.9,21.7,29.69,NNW,348,15.0,16.0,91,0.00,,,0.00,Wunderground v.1.15,2013-03-20 08:52:00,
2013-03-20 04:57:00,23.9,21.7,29.69,NNW,348,15.0,16.0,91,0.00,,,0.00,Wunderground v.1.15,2013-03-20 08:57:00,
2013-03-20 05:02:00,-999.9,-99.9,29.69,North,32767,-999.0,15.0,255,-99.99,,,0.00,Wunderground v.1.15,2013-03-20 09:02:00,
2013-03-20 05:07:00,-999.9,-99.9,29.69,North,32767,-999.0,15.0,255,-99.99,,,0.00,Wunderground v.1.15,2013-03-20 09:07:00,
2013-03-20 05:12:00,-999.9,-99.9,29.70,North,32767,-999.0,-999.0,255,-99.99,,,0.00,Wunderground v.1.15,2013-03-20 09:12:00,
2013-03-20 05:17:00,-999.9,-99.9,29.70,North,32767,-999.0,-999.0,255,-99.99,,,0.00,Wunderground v.1.15,2013-03-20 09:17:00,
2013-03-20 05:22:00,-999.9,-99.9,29.70,North,32767,-999.0,-999.0,255,-99.99,,,0.00,Wunderground v.1.15,2013-03-20 09:22:00,
2013-03-20 05:27:00,-999.9,-99.9,29.70,North,32767,-999.0,-999.0,255,-99.99,,,0.00,Wunderground v.1.15,2013-03-20 09:27:00,
2013-03-20 05:32:00,-999.9,-99.9,29.70,North,32767,-999.0,-999.0,255,-99.99,,,0.00,Wunderground v.1.15,2013-03-20 09:32:00,
2013-03-20 05:37:00,-999.9,-99.9,29.71,North,32767,-999.0,-999.0,255,-99.99,,,0.00,Wunderground v.1.15,2013-03-20 09:37:00,
2013-03-20 05:42:00,-999.9,-99.9,29.71,North,32767,-999.0,-999.0,255,-99.99,,,0.00,Wunderground v.1.15,2013-03-20 09:42:00,
2013-03-20 05:47:00,-999.9,-99.9,29.71,North,32767,-999.0,-999.0,255,-99.99,,,0.00,Wunderground v.1.15,2013-03-20 09:47:00,
2013-03-20 05:52:00,-999.9,-99.9,29.70,North,32767,-999.0,-999.0,255,-99.99,,,0.00,Wunderground v.1.15,2013-03-20 09:52:00,
2013-03-20 05:57:00,-999.9,-99.9,29.71,North,32767,-999.0,-999.0,255,-99.99,,,0.00,Wunderground v.1.15,2013-03-20 09:57:00,
2013-03-20 06:02:00,-999.9,-99.9,29.71,North,32767,-999.0,-999.0,255,-99.99,,,0.00,Wunderground v.1.15,2013-03-20 10:02:00,
2013-03-20 06:07:00,-999.9,-99.9,29.71,North,32767,-999.0,-999.0,255,-99.99,,,0.00,Wunderground v.1.15,2013-03-20 10:07:00,
2013-03-20 06:12:00,-999.9,-99.9,29.71,North,32767,-999.0,-999.0,255,-99.99,,,0.00,Wunderground v.1.15,2013-03-20 10:12:00,
2013-03-20 06:17:00,-999.9,-99.9,29.71,North,32767,-999.0,-999.0,255,-99.99,,,0.00,Wunderground v.1.15,2013-03-20 10:17:00,
2013-03-20 06:22:00,-999.9,-99.9,29.71,North,32767,-999.0,-999.0,255,-99.99,,,0.00,Wunderground v.1.15,2013-03-20 10:22:00,
2013-03-20 06:27:00,-999.9,-99.9,29.71,North,32767,-999.0,-999.0,255,-99.99,,,0.00,Wunderground v.1.15,2013-03-20 10:27:00,
2013-03-20 06:33:00,-999.9,-99.9,29.71,North,32767,-999.0,-999.0,255,-99.99,,,0.00,Wunderground v.1.15,2013-03-20 10:33:00,
2013-03-20 06:38:00,-999.9,-99.9,29.70,North,32767,-999.0,-999.0,255,-99.99,,,0.00,Wunderground v.1.15,2013-03-20 10:38:00,
2013-03-20 06:43:00,-999.9,-99.9,29.70,North,32767,-999.0,-999.0,255,-99.99,,,0.00,Wunderground v.1.15,2013-03-20 10:43:00,
2013-03-20 06:48:00,-999.9,-99.9,29.70,North,32767,-999.0,-999.0,255,-99.99,,,0.00,Wunderground v.1.15,2013-03-20 10:48:00,
2013-03-20 06:53:00,-999.9,-99.9,29.70,North,32767,-999.0,-999.0,255,-99.99,,,0.00,Wunderground v.1.15,2013-03-20 10:53:00,
2013-03-20 06:58:00,-999.9,-99.9,29.70,North,32767,-999.0,-999.0,255,-99.99,,,0.00,Wunderground v.1.15,2013-03-20 10:58:00,
2013-03-20 07:03:00,-999.9,-99.9,29.70,North,32767,-999.0,-999.0,255,-99.99,,,0.00,Wunderground v.1.15,2013-03-20 11:03:00,
2013-03-20 07:08:00,-999.9,-99.9,29.70,North,32767,-999.0,-999.0,255,-99.99,,,0.00,Wunderground v.1.15,2013-03-20 11:08:00,
2013-03-20 07:13:00,-999.9,-99.9,29.70,North,32767,-999.0,-999.0,255,-99.99,,,0.00,Wunderground v.1.15,2013-03-20 11:13:00,
2013-03-20 07:18:00,-999.9,-99.9,29.70,North,32767,-999.0,-999.0,255,-99.99,,,0.00,Wunderground v.1.15,2013-03-20 11:18:00,
2013-03-20 07:23:00,-999.9,-99.9,29.70,North,32767,-999.0,-999.0,255,-99.99,,,0.00,Wunderground v.1.15,2013-03-20 11:23:00,
2013-03-20 07:28:00,-999.9,-99.9,29.70,North,32767,-999.0,-999.0,255,-99.99,,,0.00,Wunderground v.1.15,2013-03-20 11:28:00,
2013-03-20 07:33:00,-999.9,-99.9,29.70,North,32767,-999.0,-999.0,255,-99.99,,,0.00,Wunderground v.1.15,2013-03-20 11:33:00,
2013-03-20 07:38:00,-999.9,-99.9,29.70,North,32767,-999.0,-999.0,255,-99.99,,,0.00,Wunderground v.1.15,2013-03-20 11:38:00,
2013-03-20 07:43:00,-999.9,-99.9,29.70,North,32767,-999.0,-999.0,255,-99.99,,,0.00,Wunderground v.1.15,2013-03-20 11:43:00,
2013-03-20 07:48:00,-999.9,-99.9,29.70,North,32767,-999.0,-999.0,255,-99.99,,,0.00,Wunderground v.1.15,2013-03-20 11:48:00,
2013-03-20 07:53:00,27.8,24.2,29.70,NW,312,23.0,31.0,86,0.00,,,0.00,Wunderground v.1.15,2013-03-20 11:53:00,
2013-03-20 07:58:00,27.7,24.1,29.70,NW,326,25.0,31.0,86,0.00,,,0.00,Wunderground v.1.15,2013-03-20 11:58:00,
2013-03-20 08:03:00,27.8,24.2,29.70,NNW,328,26.0,29.0,86,0.00,,,0.00,Wunderground v.1.15,2013-03-20 12:03:00,
2013-03-20 08:08:00,27.5,23.6,29.70,NW,318,25.0,32.0,85,0.00,,,0.00,Wunderground v.1.15,2013-03-20 12:08:00,
2013-03-20 08:13:00,27.5,23.9,29.70,North,356,26.0,29.0,86,0.00,,,0.00,Wunderground v.1.15,2013-03-20 12:13:00,
2013-03-20 08:19:00,27.4,24.0,29.70,NW,319,27.0,30.0,87,0.00,,,0.00,Wunderground v.1.15,2013-03-20 12:19:00,
2013-03-20 08:24:00,27.3,24.2,29.71,NNW,329,30.0,34.0,88,0.00,,,0.00,Wunderground v.1.15,2013-03-20 12:24:00,
2013-03-20 08:29:00,27.4,24.6,29.71,NW,315,28.0,34.0,89,0.00,,,0.00,Wunderground v.1.15,2013-03-20 12:29:00,
2013-03-20 08:34:00,27.3,23.9,29.71,NW,317,27.0,32.0,87,0.00,,,0.00,Wunderground v.1.15,2013-03-20 12:34:00,
2013-03-20 08:39:00,27.4,23.8,29.71,NW,317,30.0,34.0,86,0.00,,,0.00,Wunderground v.1.15,2013-03-20 12:39:00,
2013-03-20 08:44:00,27.3,23.7,29.71,NW,325,32.0,36.0,86,0.00,,,0.00,Wunderground v.1.15,2013-03-20 12:44:00,
2013-03-20 08:49:00,27.3,23.7,29.71,NNW,335,34.0,36.0,86,0.00,,,0.00,Wunderground v.1.15,2013-03-20 12:49:00,
2013-03-20 08:54:00,27.7,24.3,29.71,NW,325,28.0,38.0,87,0.00,,,0.00,Wunderground v.1.15,2013-03-20 12:54:00,
2013-03-20 08:59:00,27.7,23.5,29.71,NW,321,28.0,38.0,84,0.00,,,0.00,Wunderground v.1.15,2013-03-20 12:59:00,
2013-03-20 09:04:00,27.9,23.4,29.70,NNW,335,29.0,35.0,83,0.00,,,0.00,Wunderground v.1.15,2013-03-20 13:04:00,
2013-03-20 09:09:00,27.8,23.3,29.70,NW,326,26.0,35.0,83,0.00,,,0.00,Wunderground v.1.15,2013-03-20 13:09:00,
2013-03-20 09:14:00,27.8,23.3,29.69,NW,323,30.0,32.0,83,0.00,,,0.00,Wunderground v.1.15,2013-03-20 13:14:00,
2013-03-20 09:19:00,28.1,23.6,29.69,North,356,33.0,34.0,83,0.00,,,0.00,Wunderground v.1.15,2013-03-20 13:19:00,
2013-03-20 09:24:00,28.1,23.3,29.69,NNW,333,31.0,35.0,82,0.00,,,0.00,Wunderground v.1.15,2013-03-20 13:24:00,
2013-03-20 09:29:00,28.1,23.0,29.69,NNW,340,27.0,36.0,81,0.00,,,0.00,Wunderground v.1.15,2013-03-20 13:29:00,
2013-03-20 09:34:00,28.5,23.4,29.69,NNW,327,32.0,35.0,81,0.00,,,0.00,Wunderground v.1.15,2013-03-20 13:34:00,
2013-03-20 09:39:00,28.6,23.8,29.69,NNW,329,29.0,35.0,82,0.00,,,0.00,Wunderground v.1.15,2013-03-20 13:39:00,
2013-03-20 09:44:00,28.6,22.9,29.69,NNW,328,28.0,35.0,79,0.00,,,0.00,Wunderground v.1.15,2013-03-20 13:44:00,
2013-03-20 09:49:00,28.6,22.9,29.69,NNW,335,29.0,35.0,79,0.00,,,0.00,Wunderground v.1.15,2013-03-20 13:49:00,
2013-03-20 09:54:00,28.6,22.3,29.69,NW,326,28.0,33.0,77,0.00,,,0.00,Wunderground v.1.15,2013-03-20 13:54:00,
2013-03-20 09:59:00,29.0,23.6,29.69,NNW,345,28.0,33.0,80,0.00,,,0.00,Wunderground v.1.15,2013-03-20 13:59:00,
2013-03-20 10:04:00,28.8,23.4,29.69,NW,326,29.0,32.0,80,0.00,,,0.00,Wunderground v.1.15,2013-03-20 14:04:00,
2013-03-20 10:09:00,28.9,22.9,29.70,NW,325,28.0,33.0,78,0.00,,,0.00,Wunderground v.1.15,2013-03-20 14:09:00,
2013-03-20 10:14:00,29.0,23.3,29.69,NW,316,27.0,33.0,79,0.00,,,0.00,Wunderground v.1.15,2013-03-20 14:14:00,
2013-03-20 10:19:00,29.1,23.1,29.70,NW,326,24.0,33.0,78,0.00,,,0.00,Wunderground v.1.15,2013-03-20 14:19:00,
2013-03-20 10:24:00,29.3,23.3,29.70,NNW,328,23.0,27.0,78,0.00,,,0.00,Wunderground v.1.15,2013-03-20 14:24:00,
2013-03-20 10:29:00,29.4,23.1,29.70,NW,323,29.0,30.0,77,0.00,,,0.00,Wunderground v.1.15,2013-03-20 14:29:00,
2013-03-20 10:34:00,29.5,23.5,29.70,NW,323,25.0,29.0,78,0.00,,,0.00,Wunderground v.1.15,2013-03-20 14:34:00,
2013-03-20 10:39:00,29.6,23.3,29.70,NW,318,24.0,31.0,77,0.00,,,0.00,Wunderground v.1.15,2013-03-20 14:39:00,
2013-03-20 10:44:00,29.8,23.2,29.70,NW,325,22.0,29.0,76,0.00,,,0.00,Wunderground v.1.15,2013-03-20 14:44:00,
2013-03-20 10:49:00,30.1,24.4,29.70,NNW,331,26.0,29.0,79,0.00,,,0.00,Wunderground v.1.15,2013-03-20 14:49:00,
2013-03-20 10:54:00,30.0,23.4,29.70,NNW,328,21.0,30.0,76,0.00,,,0.00,Wunderground v.1.15,2013-03-20 14:54:00,
2013-03-20 10:59:00,30.1,23.8,29.70,NW,318,22.0,30.0,77,0.00,,,0.00,Wunderground v.1.15,2013-03-20 14:59:00,
2013-03-20 11:04:00,30.2,23.2,29.70,NW,325,22.0,28.0,75,0.00,,,0.00,Wunderground v.1.15,2013-03-20 15:04:00,
2013-03-20 11:09:00,30.4,24.4,29.70,NNW,328,26.0,28.0,78,0.00,,,0.00,Wunderground v.1.15,2013-03-20 15:09:00,
2013-03-20 11:14:00,30.4,23.4,29.70,NNW,329,22.0,27.0,75,0.00,,,0.00,Wunderground v.1.15,2013-03-20 15:14:00,
2013-03-20 11:19:00,30.7,23.4,29.70,NW,326,23.0,29.0,74,0.00,,,0.00,Wunderground v.1.15,2013-03-20 15:19:00,
2013-03-20 11:24:00,30.9,23.3,29.70,NW,311,25.0,34.0,73,0.00,,,0.00,Wunderground v.1.15,2013-03-20 15:24:00,
2013-03-20 11:29:00,31.2,23.5,29.70,NW,321,30.0,34.0,73,0.00,,,0.00,Wunderground v.1.15,2013-03-20 15:29:00,
2013-03-20 11:34:00,31.4,22.7,29.70,NW,324,30.0,38.0,70,0.00,,,0.00,Wunderground v.1.15,2013-03-20 15:34:00,
2013-03-20 11:39:00,31.3,21.3,29.70,NNW,327,28.0,38.0,66,0.00,,,0.00,Wunderground v.1.15,2013-03-20 15:39:00,
2013-03-20 11:44:00,31.6,24.6,29.70,NNW,336,25.0,35.0,75,0.00,,,0.00,Wunderground v.1.15,2013-03-20 15:44:00,
2013-03-20 11:49:00,31.6,22.9,29.70,NNW,340,30.0,35.0,70,0.00,,,0.00,Wunderground v.1.15,2013-03-20 15:49:00,
2013-03-20 11:54:00,31.5,22.1,29.70,NNW,338,28.0,32.0,68,0.00,,,0.00,Wunderground v.1.15,2013-03-20 15:54:00,
2013-03-20 11:59:00,31.5,22.1,29.70,NW,321,29.0,38.0,68,0.00,,,0.00,Wunderground v.1.15,2013-03-20 15:59:00,
2013-03-20 12:04:00,31.3,21.6,29.70,NW,326,29.0,37.0,67,0.00,,,0.00,Wunderground v.1.15,2013-03-20 16:04:00,
2013-03-20 12:09:00,31.4,23.7,29.70,NNW,338,26.0,37.0,73,0.00,,,0.00,Wunderground v.1.15,2013-03-20 16:09:00,
2013-03-20 12:14:00,31.5,24.2,29.71,NW,322,30.0,32.0,74,0.00,,,0.00,Wunderground v.1.15,2013-03-20 16:14:00,
2013-03-20 12:19:00,31.1,22.1,29.70,NNW,327,28.0,34.0,69,0.00,,,0.00,Wunderground v.1.15,2013-03-20 16:19:00,
2013-03-20 12:24:00,31.1,22.5,29.70,NW,323,30.0,36.0,70,0.00,,,0.00,Wunderground v.1.15,2013-03-20 16:24:00,
2013-03-20 12:29:00,31.2,22.5,29.70,NW,323,28.0,36.0,70,0.00,,,0.00,Wunderground v.1.15,2013-03-20 16:29:00,
2013-03-20 12:34:00,31.4,20.6,29.71,NNW,331,27.0,35.0,64,0.00,,,0.00,Wunderground v.1.15,2013-03-20 16:34:00,
2013-03-20 12:39:00,31.5,21.8,29.70,NW,321,26.0,35.0,67,0.00,,,0.00,Wunderground v.1.15,2013-03-20 16:39:00,
2013-03-20 12:44:00,31.4,22.1,29.70,NW,306,32.0,32.0,68,0.00,,,0.00,Wunderground v.1.15,2013-03-20 16:44:00,
2013-03-20 12:49:00,31.4,21.7,29.71,NW,323,30.0,37.0,67,0.00,,,0.00,Wunderground v.1.15,2013-03-20 16:49:00,
2013-03-20 12:54:00,31.6,21.9,29.71,NNW,332,23.0,34.0,67,0.00,,,0.00,Wunderground v.1.15,2013-03-20 16:54:00,
2013-03-20 12:59:00,31.6,21.5,29.71,NW,326,29.0,34.0,66,0.00,,,0.00,Wunderground v.1.15,2013-03-20 16:59:00,
2013-03-20 13:04:00,31.8,21.7,29.71,NW,323,27.0,33.0,66,0.00,,,0.00,Wunderground v.1.15,2013-03-20 17:04:00,
2013-03-20 13:09:00,31.8,21.7,29.70,NW,311,27.0,36.0,66,0.00,,,0.00,Wunderground v.1.15,2013-03-20 17:09:00,
2013-03-20 13:14:00,31.6,21.5,29.70,NW,319,32.0,38.0,66,0.00,,,0.00,Wunderground v.1.15,2013-03-20 17:14:00,
2013-03-20 13:19:00,31.8,22.4,29.70,NNW,330,26.0,38.0,68,0.00,,,0.00,Wunderground v.1.15,2013-03-20 17:19:00,
2013-03-20 13:24:00,31.6,21.2,29.71,NW,321,30.0,41.0,65,0.00,,,0.00,Wunderground v.1.15,2013-03-20 17:24:00,
2013-03-20 13:30:00,31.6,21.9,29.70,NW,323,31.0,41.0,67,0.00,,,0.00,Wunderground v.1.15,2013-03-20 17:30:00,
2013-03-20 13:35:00,31.8,22.4,29.71,NW,326,26.0,32.0,68,0.00,,,0.00,Wunderground v.1.15,2013-03-20 17:35:00,
2013-03-20 13:40:00,32.0,23.0,29.70,NNW,330,30.0,35.0,69,0.00,,,0.00,Wunderground v.1.15,2013-03-20 17:40:00,
2013-03-20 13:45:00,32.2,21.7,29.71,NW,325,33.0,41.0,65,0.00,,,0.00,Wunderground v.1.15,2013-03-20 17:45:00,
2013-03-20 13:50:00,32.2,21.7,29.70,NNW,338,32.0,41.0,65,0.00,,,0.00,Wunderground v.1.15,2013-03-20 17:50:00,
2013-03-20 13:55:00,32.0,21.6,29.71,NW,326,31.0,34.0,65,0.00,,,0.00,Wunderground v.1.15,2013-03-20 17:55:00,
2013-03-20 14:00:00,31.8,22.1,29.71,NNW,330,25.0,35.0,67,0.00,,,0.00,Wunderground v.1.15,2013-03-20 18:00:00,
2013-03-20 14:05:00,31.7,22.7,29.71,NW,317,29.0,36.0,69,0.00,,,0.00,Wunderground v.1.15,2013-03-20 18:05:00,
2013-03-20 14:10:00,32.0,23.0,29.70,NW,313,27.0,31.0,69,0.00,,,0.00,Wunderground v.1.15,2013-03-20 18:10:00,
2013-03-20 14:15:00,32.0,22.6,29.70,NNW,343,23.0,32.0,68,0.00,,,0.00,Wunderground v.1.15,2013-03-20 18:15:00,
2013-03-20 14:20:00,32.3,22.9,29.70,NNW,335,25.0,26.0,68,0.00,,,0.00,Wunderground v.1.15,2013-03-20 18:20:00,
2013-03-20 14:25:00,32.4,23.0,29.70,NNW,328,26.0,29.0,68,0.00,,,0.00,Wunderground v.1.15,2013-03-20 18:25:00,
2013-03-20 14:30:00,32.3,23.6,29.70,NNW,333,31.0,31.0,70,0.00,,,0.00,Wunderground v.1.15,2013-03-20 18:30:00,
2013-03-20 14:35:00,32.3,22.9,29.70,NW,324,26.0,34.0,68,0.00,,,0.00,Wunderground v.1.15,2013-03-20 18:35:00,
2013-03-20 14:40:00,32.5,23.1,29.70,NW,319,30.0,30.0,68,0.00,,,0.00,Wunderground v.1.15,2013-03-20 18:40:00,
2013-03-20 14:45:00,32.4,24.0,29.69,NNW,335,32.0,34.0,71,0.00,,,0.00,Wunderground v.1.15,2013-03-20 18:45:00,
2013-03-20 14:50:00,32.1,23.4,29.70,North,11,25.0,29.0,70,0.00,,,0.00,Wunderground v.1.15,2013-03-20 18:50:00,
2013-03-20 14:55:00,32.5,24.1,29.70,NNW,331,26.0,31.0,71,0.00,,,0.00,Wunderground v.1.15,2013-03-20 18:55:00,
2013-03-20 15:00:00,32.9,23.5,29.69,NW,325,18.0,25.0,68,0.00,,,0.00,Wunderground v.1.15,2013-03-20 19:00:00,
2013-03-20 15:05:00,33.1,23.0,29.70,NNW,334,22.0,27.0,66,0.00,,,0.00,Wunderground v.1.15,2013-03-20 19:05:00,
2013-03-20 15:10:00,33.4,23.3,29.69,NW,325,22.0,23.0,66,0.00,,,0.00,Wunderground v.1.15,2013-03-20 19:10:00,
2013-03-20 15:15:00,33.5,23.0,29.69,NW,326,22.0,25.0,65,0.00,,,0.00,Wunderground v.1.15,2013-03-20 19:15:00,
2013-03-20 15:20:00,33.6,22.3,29.69,NW,311,22.0,23.0,63,0.00,,,0.00,Wunderground v.1.15,2013-03-20 19:20:00,
2013-03-20 15:25:00,33.8,21.8,29.70,NW,326,31.0,35.0,61,0.00,,,0.00,Wunderground v.1.15,2013-03-20 19:25:00,
2013-03-20 15:30:00,34.0,23.8,29.69,NW,321,23.0,27.0,66,0.00,,,0.00,Wunderground v.1.15,2013-03-20 19:30:00,
2013-03-20 15:35:00,34.0,22.3,29.70,NW,316,26.0,34.0,62,0.00,,,0.00,Wunderground v.1.15,2013-03-20 19:35:00,
2013-03-20 15:40:00,34.1,22.0,29.70,NW,318,24.0,27.0,61,0.00,,,0.00,Wunderground v.1.15,2013-03-20 19:40:00,
2013-03-20 15:45:00,34.3,21.4,29.69,NNW,335,29.0,31.0,59,0.00,,,0.00,Wunderground v.1.15,2013-03-20 19:45:00,
2013-03-20 15:50:00,34.4,22.7,29.69,NW,325,22.0,27.0,62,0.00,,,0.00,Wunderground v.1.15,2013-03-20 19:50:00,
2013-03-20 15:55:00,34.7,24.1,29.69,NW,313,36.0,36.0,65,0.00,,,0.00,Wunderground v.1.15,2013-03-20 19:55:00,
2013-03-20 16:01:00,34.7,23.4,29.70,NW,325,32.0,32.0,63,0.00,,,0.00,Wunderground v.1.15,2013-03-20 20:01:00,
2013-03-20 16:05:00,34.9,23.9,29.69,NW,311,31.0,35.0,64,0.00,,,0.00,Wunderground v.1.15,2013-03-20 20:05:00,
2013-03-20 16:10:00,34.8,21.5,29.69,NW,316,31.0,33.0,58,0.00,,,0.00,Wunderground v.1.15,2013-03-20 20:10:00,
2013-03-20 16:16:00,35.0,22.9,29.69,NW,321,29.0,35.0,61,0.00,,,0.00,Wunderground v.1.15,2013-03-20 20:16:00,
2013-03-20 16:21:00,35.1,22.6,29.69,NW,321,27.0,29.0,60,0.00,,,0.00,Wunderground v.1.15,2013-03-20 20:21:00,
2013-03-20 16:26:00,35.1,21.4,29.69,NNW,328,30.0,38.0,57,0.00,,,0.00,Wunderground v.1.15,2013-03-20 20:26:00,
2013-03-20 16:31:00,35.2,21.9,29.70,NW,326,31.0,34.0,58,0.00,,,0.00,Wunderground v.1.15,2013-03-20 20:31:00,
2013-03-20 16:36:00,35.2,20.6,29.69,NW,319,33.0,43.0,55,0.00,,,0.00,Wunderground v.1.15,2013-03-20 20:36:00,
2013-03-20 16:42:00,35.2,21.5,29.69,NW,326,33.0,36.0,57,0.00,,,0.00,Wunderground v.1.15,2013-03-20 20:42:00,
2013-03-20 16:47:00,35.3,21.2,29.70,NW,318,30.0,37.0,56,0.00,,,0.00,Wunderground v.1.15,2013-03-20 20:47:00,
2013-03-20 16:52:00,35.4,22.5,29.70,NW,324,30.0,38.0,59,0.00,,,0.00,Wunderground v.1.15,2013-03-20 20:52:00,
2013-03-20 16:57:00,35.5,21.3,29.70,NW,317,32.0,38.0,56,0.00,,,0.00,Wunderground v.1.15,2013-03-20 20:57:00,
2013-03-20 17:02:00,35.6,22.3,29.70,NW,315,30.0,34.0,58,0.00,,,0.00,Wunderground v.1.15,2013-03-20 21:02:00,
2013-03-20 17:07:00,35.6,21.9,29.70,NNW,336,25.0,34.0,57,0.00,,,0.00,Wunderground v.1.15,2013-03-20 21:07:00,
2013-03-20 17:12:00,35.6,21.9,29.70,NW,319,28.0,29.0,57,0.00,,,0.00,Wunderground v.1.15,2013-03-20 21:12:00,
2013-03-20 17:17:00,35.7,21.9,29.70,NW,321,26.0,33.0,57,0.00,,,0.00,Wunderground v.1.15,2013-03-20 21:17:00,
2013-03-20 17:22:00,35.8,22.5,29.70,NW,313,30.0,30.0,58,0.00,,,0.00,Wunderground v.1.15,2013-03-20 21:22:00,
2013-03-20 17:27:00,35.9,21.7,29.70,NNW,327,32.0,32.0,56,0.00,,,0.00,Wunderground v.1.15,2013-03-20 21:27:00,
2013-03-20 17:32:00,35.9,22.5,29.70,NW,309,25.0,32.0,58,0.00,,,0.00,Wunderground v.1.15,2013-03-20 21:32:00,
2013-03-20 17:37:00,35.9,23.0,29.70,NW,321,27.0,33.0,59,0.00,,,0.00,Wunderground v.1.15,2013-03-20 21:37:00,
2013-03-20 17:42:00,36.0,22.2,29.70,NW,321,26.0,32.0,57,0.00,,,0.00,Wunderground v.1.15,2013-03-20 21:42:00,
2013-03-20 17:47:00,36.0,22.6,29.71,NW,314,29.0,32.0,58,0.00,,,0.00,Wunderground v.1.15,2013-03-20 21:47:00,
2013-03-20 17:52:00,36.0,22.2,29.71,NW,318,30.0,31.0,57,0.00,,,0.00,Wunderground v.1.15,2013-03-20 21:52:00,
2013-03-20 17:57:00,36.1,23.1,29.71,NW,315,27.0,34.0,59,0.00,,,0.00,Wunderground v.1.15,2013-03-20 21:57:00,
2013-03-20 18:02:00,36.1,22.7,29.72,NW,319,28.0,32.0,58,0.00,,,0.00,Wunderground v.1.15,2013-03-20 22:02:00,
2013-03-20 18:07:00,36.1,22.3,29.72,NW,321,28.0,34.0,57,0.00,,,0.00,Wunderground v.1.15,2013-03-20 22:07:00,
2013-03-20 18:12:00,36.1,22.7,29.71,NW,319,31.0,34.0,58,0.00,,,0.00,Wunderground v.1.15,2013-03-20 22:12:00,
2013-03-20 18:17:00,35.9,23.4,29.71,NW,323,28.0,34.0,60,0.00,,,0.00,Wunderground v.1.15,2013-03-20 22:17:00,
2013-03-20 18:22:00,36.0,22.6,29.72,NW,323,25.0,31.0,58,0.00,,,0.00,Wunderground v.1.15,2013-03-20 22:22:00,
2013-03-20 18:27:00,35.9,22.5,29.72,NW,311,28.0,31.0,58,0.00,,,0.00,Wunderground v.1.15,2013-03-20 22:27:00,
2013-03-20 18:32:00,35.9,23.4,29.72,NNW,336,28.0,29.0,60,0.00,,,0.00,Wunderground v.1.15,2013-03-20 22:32:00,
2013-03-20 18:37:00,35.9,22.1,29.72,NW,316,30.0,34.0,57,0.00,,,0.00,Wunderground v.1.15,2013-03-20 22:37:00,
2013-03-20 18:42:00,35.9,23.4,29.73,NNW,328,27.0,29.0,60,0.00,,,0.00,Wunderground v.1.15,2013-03-20 22:42:00,
2013-03-20 18:47:00,35.7,21.9,29.73,NW,319,25.0,30.0,57,0.00,,,0.00,Wunderground v.1.15,2013-03-20 22:47:00,
2013-03-20 18:52:00,35.7,22.8,29.73,NNW,328,26.0,30.0,59,0.00,,,0.00,Wunderground v.1.15,2013-03-20 22:52:00,
2013-03-20 18:57:00,35.6,21.9,29.73,NW,315,28.0,30.0,57,0.00,,,0.00,Wunderground v.1.15,2013-03-20 22:57:00,
2013-03-20 19:02:00,35.6,21.9,29.74,NW,316,24.0,29.0,57,0.00,,,0.00,Wunderground v.1.15,2013-03-20 23:02:00,
2013-03-20 19:07:00,35.5,22.2,29.74,NW,313,25.0,29.0,58,0.00,,,0.00,Wunderground v.1.15,2013-03-20 23:07:00,
2013-03-20 19:12:00,35.5,23.0,29.74,NW,319,25.0,27.0,60,0.00,,,0.00,Wunderground v.1.15,2013-03-20 23:12:00,
2013-03-20 19:18:00,35.4,21.7,29.74,NW,316,28.0,30.0,57,0.00,,,0.00,Wunderground v.1.15,2013-03-20 23:18:00,
2013-03-20 19:23:00,35.4,23.3,29.74,NW,312,26.0,29.0,61,0.00,,,0.00,Wunderground v.1.15,2013-03-20 23:23:00,
2013-03-20 19:28:00,35.4,22.5,29.75,NW,312,29.0,31.0,59,0.00,,,0.00,Wunderground v.1.15,2013-03-20 23:28:00,
2013-03-20 19:33:00,35.3,22.4,29.75,NW,309,27.0,28.0,59,0.00,,,0.00,Wunderground v.1.15,2013-03-20 23:33:00,
2013-03-20 19:38:00,35.3,23.6,29.75,NW,311,26.0,32.0,62,0.00,,,0.00,Wunderground v.1.15,2013-03-20 23:38:00,
2013-03-20 19:43:00,35.2,23.1,29.75,NW,319,23.0,27.0,61,0.00,,,0.00,Wunderground v.1.15,2013-03-20 23:43:00,
2013-03-20 19:48:00,35.1,22.6,29.75,NW,314,27.0,31.0,60,0.00,,,0.00,Wunderground v.1.15,2013-03-20 23:48:00,
2013-03-20 19:53:00,35.1,22.6,29.76,NW,315,31.0,34.0,60,0.00,,,0.00,Wunderground v.1.15,2013-03-20 23:53:00,
2013-03-20 19:58:00,35.1,22.6,29.76,NW,314,29.0,34.0,60,0.00,,,0.00,Wunderground v.1.15,2013-03-20 23:58:00,
2013-03-20 20:03:00,35.1,22.6,29.76,NW,316,29.0,29.0,60,0.00,,,0.00,Wunderground v.1.15,2013-03-21 00:03:00,
2013-03-20 20:08:00,35.0,22.1,29.76,NW,313,26.0,30.0,59,0.00,,,0.00,Wunderground v.1.15,2013-03-21 00:08:00,
2013-03-20 20:13:00,34.9,22.0,29.77,NW,316,25.0,27.0,59,0.00,,,0.00,Wunderground v.1.15,2013-03-21 00:13:00,
2013-03-20 20:18:00,34.9,23.2,29.76,NW,311,24.0,27.0,62,0.00,,,0.00,Wunderground v.1.15,2013-03-21 00:18:00,
2013-03-20 20:23:00,34.9,23.2,29.77,NW,304,23.0,26.0,62,0.00,,,0.00,Wunderground v.1.15,2013-03-21 00:23:00,
2013-03-20 20:28:00,34.9,22.8,29.77,NW,305,27.0,28.0,61,0.00,,,0.00,Wunderground v.1.15,2013-03-21 00:28:00,
2013-03-20 20:33:00,34.8,22.3,29.77,NW,305,25.0,27.0,60,0.00,,,0.00,Wunderground v.1.15,2013-03-21 00:33:00,
2013-03-20 20:38:00,34.8,22.7,29.77,NW,308,21.0,27.0,61,0.00,,,0.00,Wunderground v.1.15,2013-03-21 00:38:00,
2013-03-20 20:43:00,34.8,23.1,29.77,NW,323,21.0,23.0,62,0.00,,,0.00,Wunderground v.1.15,2013-03-21 00:43:00,
2013-03-20 20:48:00,34.7,22.6,29.77,NW,311,23.0,24.0,61,0.00,,,0.00,Wunderground v.1.15,2013-03-21 00:48:00,
2013-03-20 20:53:00,34.6,22.5,29.76,NW,309,22.0,24.0,61,0.00,,,0.00,Wunderground v.1.15,2013-03-21 00:53:00,
2013-03-20 20:58:00,34.6,23.7,29.77,WNW,300,20.0,24.0,64,0.00,,,0.00,Wunderground v.1.15,2013-03-21 00:58:00,
2013-03-20 21:03:00,34.7,21.4,29.76,NW,304,23.0,28.0,58,0.00,,,0.00,Wunderground v.1.15,2013-03-21 01:03:00,
2013-03-20 21:08:00,34.7,23.0,29.77,NW,311,22.0,28.0,62,0.00,,,0.00,Wunderground v.1.15,2013-03-21 01:08:00,
2013-03-20 21:13:00,34.7,22.6,29.77,NW,304,23.0,28.0,61,0.00,,,0.00,Wunderground v.1.15,2013-03-21 01:13:00,
2013-03-20 21:18:00,34.7,24.1,29.77,NW,306,20.0,28.0,65,0.00,,,0.00,Wunderground v.1.15,2013-03-21 01:18:00,
2013-03-20 21:23:00,34.6,24.0,29.77,WNW,294,23.0,26.0,65,0.00,,,0.00,Wunderground v.1.15,2013-03-21 01:23:00,
2013-03-20 21:28:00,34.5,23.6,29.77,WNW,296,22.0,26.0,64,0.00,,,0.00,Wunderground v.1.15,2013-03-21 01:28:00,
2013-03-20 21:33:00,34.5,23.2,29.76,WNW,301,24.0,25.0,63,0.00,,,0.00,Wunderground v.1.15,2013-03-21 01:33:00,
2013-03-20 21:38:00,34.4,23.1,29.76,WNW,302,22.0,28.0,63,0.00,,,0.00,Wunderground v.1.15,2013-03-21 01:38:00,
2013-03-20 21:43:00,34.3,23.0,29.76,NW,304,29.0,29.0,63,0.00,,,0.00,Wunderground v.1.15,2013-03-21 01:43:00,
2013-03-20 21:48:00,34.3,22.6,29.77,WNW,302,22.0,29.0,62,0.00,,,0.00,Wunderground v.1.15,2013-03-21 01:48:00,
2013-03-20 21:53:00,34.3,22.6,29.77,WNW,300,25.0,28.0,62,0.00,,,0.00,Wunderground v.1.15,2013-03-21 01:53:00,
2013-03-20 21:59:00,34.3,22.6,29.77,NW,305,26.0,28.0,62,0.00,,,0.00,Wunderground v.1.15,2013-03-21 01:59:00,
2013-03-20 22:04:00,34.2,23.3,29.77,WNW,302,23.0,29.0,64,0.00,,,0.00,Wunderground v.1.15,2013-03-21 02:04:00,
2013-03-20 22:09:00,34.2,23.3,29.78,WNW,300,22.0,29.0,64,0.00,,,0.00,Wunderground v.1.15,2013-03-21 02:09:00,
2013-03-20 22:14:00,34.0,23.5,29.78,NW,304,25.0,25.0,65,0.00,,,0.00,Wunderground v.1.15,2013-03-21 02:14:00,
2013-03-20 22:19:00,34.0,23.5,29.78,WNW,302,25.0,29.0,65,0.00,,,0.00,Wunderground v.1.15,2013-03-21 02:19:00,
2013-03-20 22:24:00,34.0,23.5,29.78,WNW,298,19.0,26.0,65,0.00,,,0.00,Wunderground v.1.15,2013-03-21 02:24:00,
2013-03-20 22:29:00,34.0,22.7,29.78,WNW,302,24.0,29.0,63,0.00,,,0.00,Wunderground v.1.15,2013-03-21 02:29:00,
2013-03-20 22:34:00,34.0,23.1,29.78,WNW,301,23.0,27.0,64,0.00,,,0.00,Wunderground v.1.15,2013-03-21 02:34:00,
2013-03-20 22:39:00,34.0,23.8,29.78,WNW,291,25.0,27.0,66,0.00,,,0.00,Wunderground v.1.15,2013-03-21 02:39:00,
2013-03-20 22:44:00,34.0,23.5,29.78,WNW,302,27.0,30.0,65,0.00,,,0.00,Wunderground v.1.15,2013-03-21 02:44:00,
2013-03-20 22:49:00,34.0,22.7,29.78,WNW,301,28.0,31.0,63,0.00,,,0.00,Wunderground v.1.15,2013-03-21 02:49:00,
2013-03-20 22:54:00,34.0,23.8,29.78,WNW,302,27.0,31.0,66,0.00,,,0.00,Wunderground v.1.15,2013-03-21 02:54:00,
2013-03-20 22:59:00,34.0,23.5,29.78,NW,309,25.0,31.0,65,0.00,,,0.00,Wunderground v.1.15,2013-03-21 02:59:00,
2013-03-20 23:04:00,34.0,23.5,29.78,WNW,298,26.0,30.0,65,0.00,,,0.00,Wunderground v.1.15,2013-03-21 03:04:00,
2013-03-20 23:09:00,33.9,23.0,29.78,WNW,302,22.0,30.0,64,0.00,,,0.00,Wunderground v.1.15,2013-03-21 03:09:00,
2013-03-20 23:14:00,33.8,24.7,29.78,NW,313,25.0,27.0,69,0.00,,,0.00,Wunderground v.1.15,2013-03-21 03:14:00,
2013-03-20 23:19:00,33.7,23.2,29.78,NW,304,25.0,27.0,65,0.00,,,0.00,Wunderground v.1.15,2013-03-21 03:19:00,
2013-03-20 23:24:00,33.8,23.6,29.78,WNW,301,26.0,28.0,66,0.00,,,0.00,Wunderground v.1.15,2013-03-21 03:24:00,
2013-03-20 23:29:00,33.7,23.2,29.78,WNW,302,26.0,29.0,65,0.00,,,0.00,Wunderground v.1.15,2013-03-21 03:29:00,
2013-03-20 23:34:00,33.7,22.8,29.78,NW,305,26.0,30.0,64,0.00,,,0.00,Wunderground v.1.15,2013-03-21 03:34:00,
2013-03-20 23:40:00,33.6,23.1,29.78,NW,306,27.0,30.0,65,0.00,,,0.00,Wunderground v.1.15,2013-03-21 03:40:00,
2013-03-20 23:45:00,33.6,24.2,29.78,NW,307,25.0,28.0,68,0.00,,,0.00,Wunderground v.1.15,2013-03-21 03:45:00,
2013-03-20 23:50:00,33.4,23.3,29.78,NW,316,27.0,29.0,66,0.00,,,0.00,Wunderground v.1.15,2013-03-21 03:50:00,
2013-03-20 23:55:00,33.3,22.8,29.79,NW,308,27.0,31.0,65,0.00,,,0.00,Wunderground v.1.15,2013-03-21 03:55:00,